sensor_id;sensor_type;location;lat;lon;timestamp;P1;durP1;ratioP1;P2;durP2;ratioP2
20177;SDS011;10248;51.218;20.866;2023-05-10T00:00:55;0.40;;;0.40;;
20177;SDS011;10248;51.218;20.866;2023-05-10T00:03:23;0.52;;;0.52;;
20177;SDS011;10248;51.218;20.866;2023-05-10T00:05:52;0.50;;;0.50;;
20177;SDS011;10248;51.218;20.866;2023-05-10T00:08:19;0.60;;;0.60;;
20177;SDS011;10248;51.218;20.866;2023-05-10T00:10:47;0.50;;;0.50;;
20177;SDS011;10248;51.218;20.866;2023-05-10T00:13:14;0.50;;;0.50;;
20177;SDS011;10248;51.218;20.866;2023-05-10T00:15:42;0.50;;;0.50;;
20177;SDS011;10248;51.218;20.866;2023-05-10T00:18:09;0.50;;;0.50;;
20177;SDS011;10248;51.218;20.866;2023-05-10T00:20:37;0.50;;;0.50;;
20177;SDS011;10248;51.218;20.866;2023-05-10T00:23:06;0.50;;;0.50;;
20177;SDS011;10248;51.218;20.866;2023-05-10T00:25:33;0.50;;;0.50;;
20177;SDS011;10248;51.218;20.866;2023-05-10T00:28:01;0.40;;;0.40;;
20177;SDS011;10248;51.218;20.866;2023-05-10T00:30:28;0.50;;;0.50;;
20177;SDS011;10248;51.218;20.866;2023-05-10T00:32:56;0.50;;;0.50;;
20177;SDS011;10248;51.218;20.866;2023-05-10T00:35:24;0.52;;;0.52;;
20177;SDS011;10248;51.218;20.866;2023-05-10T00:37:52;0.50;;;0.50;;
20177;SDS011;10248;51.218;20.866;2023-05-10T00:40:21;0.50;;;0.50;;
20177;SDS011;10248;51.218;20.866;2023-05-10T00:42:48;0.50;;;0.50;;
20177;SDS011;10248;51.218;20.866;2023-05-10T00:45:16;0.50;;;0.50;;
20177;SDS011;10248;51.218;20.866;2023-05-10T00:47:43;0.60;;;0.60;;
20177;SDS011;10248;51.218;20.866;2023-05-10T00:50:11;0.50;;;0.50;;
20177;SDS011;10248;51.218;20.866;2023-05-10T00:52:38;0.50;;;0.50;;
20177;SDS011;10248;51.218;20.866;2023-05-10T00:55:06;0.50;;;0.50;;
20177;SDS011;10248;51.218;20.866;2023-05-10T00:57:35;0.50;;;0.50;;
20177;SDS011;10248;51.218;20.866;2023-05-10T01:00:03;0.50;;;0.50;;
20177;SDS011;10248;51.218;20.866;2023-05-10T01:02:31;0.47;;;0.47;;
20177;SDS011;10248;51.218;20.866;2023-05-10T01:04:58;0.50;;;0.50;;
20177;SDS011;10248;51.218;20.866;2023-05-10T01:07:26;0.60;;;0.60;;
20177;SDS011;10248;51.218;20.866;2023-05-10T01:09:54;0.50;;;0.50;;
20177;SDS011;10248;51.218;20.866;2023-05-10T01:12:21;0.50;;;0.50;;
20177;SDS011;10248;51.218;20.866;2023-05-10T01:14:50;0.47;;;0.47;;
20177;SDS011;10248;51.218;20.866;2023-05-10T01:17:18;0.50;;;0.50;;
20177;SDS011;10248;51.218;20.866;2023-05-10T01:19:45;0.50;;;0.50;;
20177;SDS011;10248;51.218;20.866;2023-05-10T01:22:17;0.50;;;0.50;;
20177;SDS011;10248;51.218;20.866;2023-05-10T01:25:01;0.50;;;0.50;;
20177;SDS011;10248;51.218;20.866;2023-05-10T01:27:47;0.43;;;0.43;;
20177;SDS011;10248;51.218;20.866;2023-05-10T01:33:08;0.50;;;0.50;;
20177;SDS011;10248;51.218;20.866;2023-05-10T01:35:39;0.60;;;0.60;;
20177;SDS011;10248;51.218;20.866;2023-05-10T01:38:09;0.50;;;0.50;;
20177;SDS011;10248;51.218;20.866;2023-05-10T01:40:39;0.50;;;0.50;;
20177;SDS011;10248;51.218;20.866;2023-05-10T01:43:11;0.60;;;0.60;;
20177;SDS011;10248;51.218;20.866;2023-05-10T01:45:45;0.50;;;0.50;;
20177;SDS011;10248;51.218;20.866;2023-05-10T01:48:16;0.50;;;0.50;;
20177;SDS011;10248;51.218;20.866;2023-05-10T01:50:45;0.50;;;0.50;;
20177;SDS011;10248;51.218;20.866;2023-05-10T01:53:13;0.50;;;0.50;;
20177;SDS011;10248;51.218;20.866;2023-05-10T01:55:46;0.60;;;0.60;;
20177;SDS011;10248;51.218;20.866;2023-05-10T01:58:14;0.47;;;0.47;;
20177;SDS011;10248;51.218;20.866;2023-05-10T02:00:42;0.40;;;0.40;;
20177;SDS011;10248;51.218;20.866;2023-05-10T02:03:10;0.50;;;0.50;;
20177;SDS011;10248;51.218;20.866;2023-05-10T02:05:40;0.50;;;0.50;;
20177;SDS011;10248;51.218;20.866;2023-05-10T02:08:08;0.50;;;0.50;;
20177;SDS011;10248;51.218;20.866;2023-05-10T02:10:36;0.50;;;0.50;;
20177;SDS011;10248;51.218;20.866;2023-05-10T02:13:04;0.50;;;0.50;;
20177;SDS011;10248;51.218;20.866;2023-05-10T02:15:33;0.50;;;0.50;;
20177;SDS011;10248;51.218;20.866;2023-05-10T02:18:01;0.50;;;0.50;;
20177;SDS011;10248;51.218;20.866;2023-05-10T02:20:29;0.55;;;0.55;;
20177;SDS011;10248;51.218;20.866;2023-05-10T02:23:00;0.50;;;0.50;;
20177;SDS011;10248;51.218;20.866;2023-05-10T02:25:28;0.60;;;0.60;;
20177;SDS011;10248;51.218;20.866;2023-05-10T02:27:56;0.50;;;0.50;;
20177;SDS011;10248;51.218;20.866;2023-05-10T02:30:24;0.50;;;0.50;;
20177;SDS011;10248;51.218;20.866;2023-05-10T02:32:51;0.50;;;0.50;;
20177;SDS011;10248;51.218;20.866;2023-05-10T02:35:19;0.50;;;0.50;;
20177;SDS011;10248;51.218;20.866;2023-05-10T02:37:47;0.50;;;0.50;;
20177;SDS011;10248;51.218;20.866;2023-05-10T02:40:17;0.50;;;0.50;;
20177;SDS011;10248;51.218;20.866;2023-05-10T02:42:45;0.55;;;0.55;;
20177;SDS011;10248;51.218;20.866;2023-05-10T02:45:21;0.55;;;0.55;;
20177;SDS011;10248;51.218;20.866;2023-05-10T02:47:51;0.50;;;0.50;;
20177;SDS011;10248;51.218;20.866;2023-05-10T02:50:18;0.50;;;0.50;;
20177;SDS011;10248;51.218;20.866;2023-05-10T02:52:46;0.50;;;0.50;;
20177;SDS011;10248;51.218;20.866;2023-05-10T02:55:14;0.60;;;0.60;;
20177;SDS011;10248;51.218;20.866;2023-05-10T02:57:45;0.60;;;0.60;;
20177;SDS011;10248;51.218;20.866;2023-05-10T03:00:15;0.60;;;0.60;;
20177;SDS011;10248;51.218;20.866;2023-05-10T03:02:43;0.50;;;0.50;;
20177;SDS011;10248;51.218;20.866;2023-05-10T03:05:10;0.60;;;0.60;;
20177;SDS011;10248;51.218;20.866;2023-05-10T03:07:38;0.50;;;0.50;;
20177;SDS011;10248;51.218;20.866;2023-05-10T03:10:06;0.50;;;0.50;;
20177;SDS011;10248;51.218;20.866;2023-05-10T03:12:39;0.50;;;0.50;;
20177;SDS011;10248;51.218;20.866;2023-05-10T03:15:11;0.50;;;0.50;;
20177;SDS011;10248;51.218;20.866;2023-05-10T03:17:41;0.60;;;0.60;;
20177;SDS011;10248;51.218;20.866;2023-05-10T03:20:16;0.60;;;0.60;;
20177;SDS011;10248;51.218;20.866;2023-05-10T03:22:45;0.55;;;0.55;;
20177;SDS011;10248;51.218;20.866;2023-05-10T03:25:14;0.60;;;0.60;;
20177;SDS011;10248;51.218;20.866;2023-05-10T03:27:43;0.50;;;0.50;;
20177;SDS011;10248;51.218;20.866;2023-05-10T03:30:12;0.60;;;0.60;;
20177;SDS011;10248;51.218;20.866;2023-05-10T03:32:40;0.50;;;0.50;;
20177;SDS011;10248;51.218;20.866;2023-05-10T03:35:08;0.60;;;0.60;;
20177;SDS011;10248;51.218;20.866;2023-05-10T03:37:35;0.60;;;0.60;;
20177;SDS011;10248;51.218;20.866;2023-05-10T03:40:03;0.60;;;0.60;;
20177;SDS011;10248;51.218;20.866;2023-05-10T03:42:31;0.60;;;0.60;;
20177;SDS011;10248;51.218;20.866;2023-05-10T03:44:58;0.60;;;0.60;;
20177;SDS011;10248;51.218;20.866;2023-05-10T03:47:27;0.50;;;0.50;;
20177;SDS011;10248;51.218;20.866;2023-05-10T03:49:56;0.60;;;0.60;;
20177;SDS011;10248;51.218;20.866;2023-05-10T03:52:23;0.60;;;0.60;;
20177;SDS011;10248;51.218;20.866;2023-05-10T03:54:51;0.60;;;0.60;;
20177;SDS011;10248;51.218;20.866;2023-05-10T03:57:18;0.60;;;0.60;;
20177;SDS011;10248;51.218;20.866;2023-05-10T03:59:46;0.70;;;0.70;;
20177;SDS011;10248;51.218;20.866;2023-05-10T04:02:13;0.60;;;0.60;;
20177;SDS011;10248;51.218;20.866;2023-05-10T04:04:42;0.60;;;0.60;;
20177;SDS011;10248;51.218;20.866;2023-05-10T04:07:10;0.60;;;0.60;;
20177;SDS011;10248;51.218;20.866;2023-05-10T04:09:37;0.60;;;0.60;;
20177;SDS011;10248;51.218;20.866;2023-05-10T04:12:05;0.60;;;0.60;;
20177;SDS011;10248;51.218;20.866;2023-05-10T04:14:36;0.50;;;0.50;;
20177;SDS011;10248;51.218;20.866;2023-05-10T04:17:03;0.60;;;0.60;;
20177;SDS011;10248;51.218;20.866;2023-05-10T04:19:31;0.60;;;0.60;;
20177;SDS011;10248;51.218;20.866;2023-05-10T04:22:01;0.60;;;0.60;;
20177;SDS011;10248;51.218;20.866;2023-05-10T04:24:29;0.60;;;0.60;;
20177;SDS011;10248;51.218;20.866;2023-05-10T04:26:56;0.50;;;0.50;;
20177;SDS011;10248;51.218;20.866;2023-05-10T04:29:24;0.60;;;0.60;;
20177;SDS011;10248;51.218;20.866;2023-05-10T04:31:52;0.60;;;0.60;;
20177;SDS011;10248;51.218;20.866;2023-05-10T04:34:20;0.60;;;0.60;;
20177;SDS011;10248;51.218;20.866;2023-05-10T04:36:47;0.60;;;0.60;;
20177;SDS011;10248;51.218;20.866;2023-05-10T04:39:16;0.50;;;0.50;;
20177;SDS011;10248;51.218;20.866;2023-05-10T04:41:44;0.60;;;0.60;;
20177;SDS011;10248;51.218;20.866;2023-05-10T04:44:11;0.50;;;0.50;;
20177;SDS011;10248;51.218;20.866;2023-05-10T04:46:39;0.52;;;0.52;;
20177;SDS011;10248;51.218;20.866;2023-05-10T04:49:06;0.50;;;0.50;;
20177;SDS011;10248;51.218;20.866;2023-05-10T04:51:34;0.60;;;0.60;;
20177;SDS011;10248;51.218;20.866;2023-05-10T04:54:02;0.60;;;0.60;;
20177;SDS011;10248;51.218;20.866;2023-05-10T04:56:33;0.60;;;0.60;;
20177;SDS011;10248;51.218;20.866;2023-05-10T04:59:00;0.60;;;0.60;;
20177;SDS011;10248;51.218;20.866;2023-05-10T05:01:28;0.60;;;0.60;;
20177;SDS011;10248;51.218;20.866;2023-05-10T05:03:56;0.70;;;0.70;;
20177;SDS011;10248;51.218;20.866;2023-05-10T05:06:24;0.60;;;0.60;;
20177;SDS011;10248;51.218;20.866;2023-05-10T05:08:53;0.50;;;0.50;;
20177;SDS011;10248;51.218;20.866;2023-05-10T05:11:20;0.60;;;0.60;;
20177;SDS011;10248;51.218;20.866;2023-05-10T05:13:49;0.60;;;0.60;;
20177;SDS011;10248;51.218;20.866;2023-05-10T05:16:17;0.60;;;0.60;;
20177;SDS011;10248;51.218;20.866;2023-05-10T05:18:45;0.60;;;0.60;;
20177;SDS011;10248;51.218;20.866;2023-05-10T05:21:15;0.57;;;0.57;;
20177;SDS011;10248;51.218;20.866;2023-05-10T05:23:43;0.60;;;0.60;;
20177;SDS011;10248;51.218;20.866;2023-05-10T05:26:10;0.50;;;0.50;;
20177;SDS011;10248;51.218;20.866;2023-05-10T05:28:38;0.60;;;0.60;;
20177;SDS011;10248;51.218;20.866;2023-05-10T05:31:07;0.50;;;0.50;;
20177;SDS011;10248;51.218;20.866;2023-05-10T05:33:35;0.55;;;0.55;;
20177;SDS011;10248;51.218;20.866;2023-05-10T05:36:03;0.50;;;0.50;;
20177;SDS011;10248;51.218;20.866;2023-05-10T05:38:31;0.50;;;0.50;;
20177;SDS011;10248;51.218;20.866;2023-05-10T05:40:59;0.50;;;0.50;;
20177;SDS011;10248;51.218;20.866;2023-05-10T05:43:26;0.60;;;0.60;;
20177;SDS011;10248;51.218;20.866;2023-05-10T05:45:54;0.60;;;0.60;;
20177;SDS011;10248;51.218;20.866;2023-05-10T05:48:25;0.50;;;0.50;;
20177;SDS011;10248;51.218;20.866;2023-05-10T05:50:54;0.50;;;0.50;;
20177;SDS011;10248;51.218;20.866;2023-05-10T05:53:22;0.45;;;0.45;;
20177;SDS011;10248;51.218;20.866;2023-05-10T05:55:53;0.50;;;0.50;;
20177;SDS011;10248;51.218;20.866;2023-05-10T05:58:21;0.50;;;0.50;;
20177;SDS011;10248;51.218;20.866;2023-05-10T06:00:49;0.60;;;0.60;;
20177;SDS011;10248;51.218;20.866;2023-05-10T06:03:16;0.40;;;0.40;;
20177;SDS011;10248;51.218;20.866;2023-05-10T06:05:45;0.40;;;0.40;;
20177;SDS011;10248;51.218;20.866;2023-05-10T06:08:13;0.50;;;0.50;;
20177;SDS011;10248;51.218;20.866;2023-05-10T06:10:40;0.40;;;0.40;;
20177;SDS011;10248;51.218;20.866;2023-05-10T06:13:07;0.47;;;0.47;;
20177;SDS011;10248;51.218;20.866;2023-05-10T06:15:36;0.50;;;0.50;;
20177;SDS011;10248;51.218;20.866;2023-05-10T06:18:03;0.50;;;0.50;;
20177;SDS011;10248;51.218;20.866;2023-05-10T06:20:32;0.40;;;0.40;;
20177;SDS011;10248;51.218;20.866;2023-05-10T06:23:01;0.40;;;0.40;;
20177;SDS011;10248;51.218;20.866;2023-05-10T06:25:28;0.40;;;0.40;;
20177;SDS011;10248;51.218;20.866;2023-05-10T06:27:56;0.50;;;0.50;;
20177;SDS011;10248;51.218;20.866;2023-05-10T06:30:24;0.43;;;0.43;;
20177;SDS011;10248;51.218;20.866;2023-05-10T06:32:54;0.40;;;0.40;;
20177;SDS011;10248;51.218;20.866;2023-05-10T06:35:22;0.40;;;0.40;;
20177;SDS011;10248;51.218;20.866;2023-05-10T06:37:50;0.40;;;0.40;;
20177;SDS011;10248;51.218;20.866;2023-05-10T06:40:19;0.50;;;0.50;;
20177;SDS011;10248;51.218;20.866;2023-05-10T06:42:46;0.50;;;0.50;;
20177;SDS011;10248;51.218;20.866;2023-05-10T06:45:14;0.40;;;0.40;;
20177;SDS011;10248;51.218;20.866;2023-05-10T06:47:42;0.40;;;0.40;;
20177;SDS011;10248;51.218;20.866;2023-05-10T06:50:10;0.50;;;0.50;;
20177;SDS011;10248;51.218;20.866;2023-05-10T06:52:38;0.40;;;0.40;;
20177;SDS011;10248;51.218;20.866;2023-05-10T06:55:06;0.40;;;0.40;;
20177;SDS011;10248;51.218;20.866;2023-05-10T06:57:35;0.40;;;0.40;;
20177;SDS011;10248;51.218;20.866;2023-05-10T07:00:03;0.40;;;0.40;;
20177;SDS011;10248;51.218;20.866;2023-05-10T07:02:31;0.40;;;0.40;;
20177;SDS011;10248;51.218;20.866;2023-05-10T07:04:59;0.50;;;0.50;;
20177;SDS011;10248;51.218;20.866;2023-05-10T07:07:40;0.40;;;0.40;;
20177;SDS011;10248;51.218;20.866;2023-05-10T07:10:07;0.30;;;0.30;;
20177;SDS011;10248;51.218;20.866;2023-05-10T07:12:37;0.40;;;0.40;;
20177;SDS011;10248;51.218;20.866;2023-05-10T07:15:05;0.40;;;0.40;;
20177;SDS011;10248;51.218;20.866;2023-05-10T07:17:33;0.45;;;0.45;;
20177;SDS011;10248;51.218;20.866;2023-05-10T07:20:00;0.50;;;0.50;;
20177;SDS011;10248;51.218;20.866;2023-05-10T07:22:29;0.40;;;0.40;;
20177;SDS011;10248;51.218;20.866;2023-05-10T07:24:57;0.40;;;0.40;;
20177;SDS011;10248;51.218;20.866;2023-05-10T07:27:24;0.40;;;0.40;;
20177;SDS011;10248;51.218;20.866;2023-05-10T07:29:54;0.40;;;0.40;;
20177;SDS011;10248;51.218;20.866;2023-05-10T07:32:22;0.40;;;0.40;;
20177;SDS011;10248;51.218;20.866;2023-05-10T07:34:50;0.40;;;0.40;;
20177;SDS011;10248;51.218;20.866;2023-05-10T07:37:17;0.47;;;0.47;;
20177;SDS011;10248;51.218;20.866;2023-05-10T07:39:45;0.40;;;0.40;;
20177;SDS011;10248;51.218;20.866;2023-05-10T07:42:13;0.47;;;0.47;;
20177;SDS011;10248;51.218;20.866;2023-05-10T07:44:40;0.43;;;0.43;;
20177;SDS011;10248;51.218;20.866;2023-05-10T07:47:09;0.40;;;0.40;;
20177;SDS011;10248;51.218;20.866;2023-05-10T07:49:37;0.40;;;0.40;;
20177;SDS011;10248;51.218;20.866;2023-05-10T07:52:04;0.50;;;0.50;;
20177;SDS011;10248;51.218;20.866;2023-05-10T07:54:32;0.50;;;0.50;;
20177;SDS011;10248;51.218;20.866;2023-05-10T07:56:59;0.40;;;0.40;;
20177;SDS011;10248;51.218;20.866;2023-05-10T07:59:27;0.40;;;0.40;;
20177;SDS011;10248;51.218;20.866;2023-05-10T08:01:55;0.50;;;0.50;;
20177;SDS011;10248;51.218;20.866;2023-05-10T08:04:24;0.40;;;0.40;;
20177;SDS011;10248;51.218;20.866;2023-05-10T08:06:51;0.40;;;0.40;;
20177;SDS011;10248;51.218;20.866;2023-05-10T08:09:19;0.50;;;0.50;;
20177;SDS011;10248;51.218;20.866;2023-05-10T08:11:50;0.40;;;0.40;;
20177;SDS011;10248;51.218;20.866;2023-05-10T08:14:17;0.50;;;0.50;;
20177;SDS011;10248;51.218;20.866;2023-05-10T08:16:46;0.50;;;0.50;;
20177;SDS011;10248;51.218;20.866;2023-05-10T08:19:13;0.40;;;0.40;;
20177;SDS011;10248;51.218;20.866;2023-05-10T08:21:47;0.45;;;0.45;;
20177;SDS011;10248;51.218;20.866;2023-05-10T08:24:14;0.50;;;0.50;;
20177;SDS011;10248;51.218;20.866;2023-05-10T08:26:42;0.40;;;0.40;;
20177;SDS011;10248;51.218;20.866;2023-05-10T08:29:10;0.40;;;0.40;;
20177;SDS011;10248;51.218;20.866;2023-05-10T08:31:37;0.40;;;0.40;;
20177;SDS011;10248;51.218;20.866;2023-05-10T08:34:05;0.40;;;0.40;;
20177;SDS011;10248;51.218;20.866;2023-05-10T08:36:32;0.50;;;0.50;;
20177;SDS011;10248;51.218;20.866;2023-05-10T08:39:02;0.40;;;0.40;;
20177;SDS011;10248;51.218;20.866;2023-05-10T08:41:29;0.50;;;0.50;;
20177;SDS011;10248;51.218;20.866;2023-05-10T08:44:00;0.50;;;0.50;;
20177;SDS011;10248;51.218;20.866;2023-05-10T08:46:31;0.40;;;0.40;;
20177;SDS011;10248;51.218;20.866;2023-05-10T08:49:02;0.50;;;0.50;;
20177;SDS011;10248;51.218;20.866;2023-05-10T08:51:31;0.50;;;0.50;;
20177;SDS011;10248;51.218;20.866;2023-05-10T08:54:01;0.50;;;0.50;;
20177;SDS011;10248;51.218;20.866;2023-05-10T08:56:29;0.50;;;0.50;;
20177;SDS011;10248;51.218;20.866;2023-05-10T08:58:56;0.50;;;0.50;;
20177;SDS011;10248;51.218;20.866;2023-05-10T09:01:24;0.50;;;0.50;;
20177;SDS011;10248;51.218;20.866;2023-05-10T09:03:53;0.50;;;0.50;;
20177;SDS011;10248;51.218;20.866;2023-05-10T09:06:21;0.50;;;0.50;;
20177;SDS011;10248;51.218;20.866;2023-05-10T09:08:49;0.47;;;0.47;;
20177;SDS011;10248;51.218;20.866;2023-05-10T09:11:18;0.50;;;0.50;;
20177;SDS011;10248;51.218;20.866;2023-05-10T09:13:47;0.50;;;0.50;;
20177;SDS011;10248;51.218;20.866;2023-05-10T09:16:15;0.40;;;0.40;;
20177;SDS011;10248;51.218;20.866;2023-05-10T09:18:47;0.40;;;0.40;;
20177;SDS011;10248;51.218;20.866;2023-05-10T09:21:15;0.50;;;0.50;;
20177;SDS011;10248;51.218;20.866;2023-05-10T09:23:43;0.40;;;0.40;;
20177;SDS011;10248;51.218;20.866;2023-05-10T09:26:13;0.47;;;0.47;;
20177;SDS011;10248;51.218;20.866;2023-05-10T09:28:52;0.50;;;0.50;;
20177;SDS011;10248;51.218;20.866;2023-05-10T09:31:20;0.40;;;0.40;;
20177;SDS011;10248;51.218;20.866;2023-05-10T09:33:49;0.50;;;0.50;;
20177;SDS011;10248;51.218;20.866;2023-05-10T09:36:17;0.50;;;0.50;;
20177;SDS011;10248;51.218;20.866;2023-05-10T09:38:44;0.50;;;0.50;;
20177;SDS011;10248;51.218;20.866;2023-05-10T09:41:15;0.40;;;0.40;;
20177;SDS011;10248;51.218;20.866;2023-05-10T09:43:43;0.50;;;0.50;;
20177;SDS011;10248;51.218;20.866;2023-05-10T09:46:12;0.50;;;0.50;;
20177;SDS011;10248;51.218;20.866;2023-05-10T09:48:41;0.50;;;0.50;;
20177;SDS011;10248;51.218;20.866;2023-05-10T09:51:09;0.50;;;0.50;;
20177;SDS011;10248;51.218;20.866;2023-05-10T09:53:36;0.50;;;0.50;;
20177;SDS011;10248;51.218;20.866;2023-05-10T09:56:04;0.50;;;0.50;;
20177;SDS011;10248;51.218;20.866;2023-05-10T09:58:32;0.60;;;0.60;;
20177;SDS011;10248;51.218;20.866;2023-05-10T10:01:03;0.50;;;0.50;;
20177;SDS011;10248;51.218;20.866;2023-05-10T10:03:32;0.52;;;0.52;;
20177;SDS011;10248;51.218;20.866;2023-05-10T10:06:00;0.50;;;0.50;;
20177;SDS011;10248;51.218;20.866;2023-05-10T10:08:27;0.50;;;0.50;;
20177;SDS011;10248;51.218;20.866;2023-05-10T10:10:55;0.52;;;0.52;;
20177;SDS011;10248;51.218;20.866;2023-05-10T10:13:22;0.43;;;0.43;;
20177;SDS011;10248;51.218;20.866;2023-05-10T10:15:50;0.40;;;0.40;;
20177;SDS011;10248;51.218;20.866;2023-05-10T10:18:19;0.52;;;0.52;;
20177;SDS011;10248;51.218;20.866;2023-05-10T10:20:51;0.50;;;0.50;;
20177;SDS011;10248;51.218;20.866;2023-05-10T10:23:20;0.50;;;0.50;;
20177;SDS011;10248;51.218;20.866;2023-05-10T10:25:47;0.50;;;0.50;;
20177;SDS011;10248;51.218;20.866;2023-05-10T10:28:18;0.50;;;0.50;;
20177;SDS011;10248;51.218;20.866;2023-05-10T10:30:48;0.60;;;0.60;;
20177;SDS011;10248;51.218;20.866;2023-05-10T10:33:29;0.50;;;0.50;;
20177;SDS011;10248;51.218;20.866;2023-05-10T10:36:00;0.50;;;0.50;;
20177;SDS011;10248;51.218;20.866;2023-05-10T10:38:35;0.60;;;0.60;;
20177;SDS011;10248;51.218;20.866;2023-05-10T10:41:08;0.50;;;0.50;;
20177;SDS011;10248;51.218;20.866;2023-05-10T10:43:36;0.60;;;0.60;;
20177;SDS011;10248;51.218;20.866;2023-05-10T10:46:13;0.60;;;0.60;;
20177;SDS011;10248;51.218;20.866;2023-05-10T10:48:46;0.60;;;0.60;;
20177;SDS011;10248;51.218;20.866;2023-05-10T10:51:15;0.50;;;0.50;;
20177;SDS011;10248;51.218;20.866;2023-05-10T10:53:43;0.50;;;0.50;;
20177;SDS011;10248;51.218;20.866;2023-05-10T10:56:11;0.50;;;0.50;;
20177;SDS011;10248;51.218;20.866;2023-05-10T10:58:42;0.60;;;0.60;;
20177;SDS011;10248;51.218;20.866;2023-05-10T11:01:16;0.50;;;0.50;;
20177;SDS011;10248;51.218;20.866;2023-05-10T11:06:31;0.50;;;0.50;;
20177;SDS011;10248;51.218;20.866;2023-05-10T11:09:00;0.60;;;0.60;;
20177;SDS011;10248;51.218;20.866;2023-05-10T11:11:32;0.60;;;0.60;;
20177;SDS011;10248;51.218;20.866;2023-05-10T11:14:02;0.50;;;0.50;;
20177;SDS011;10248;51.218;20.866;2023-05-10T11:16:35;0.50;;;0.50;;
20177;SDS011;10248;51.218;20.866;2023-05-10T11:19:09;0.50;;;0.50;;
20177;SDS011;10248;51.218;20.866;2023-05-10T11:21:45;0.50;;;0.50;;
20177;SDS011;10248;51.218;20.866;2023-05-10T11:24:13;0.50;;;0.50;;
20177;SDS011;10248;51.218;20.866;2023-05-10T11:26:42;0.50;;;0.50;;
20177;SDS011;10248;51.218;20.866;2023-05-10T11:29:10;0.50;;;0.50;;
20177;SDS011;10248;51.218;20.866;2023-05-10T11:31:42;0.40;;;0.40;;
20177;SDS011;10248;51.218;20.866;2023-05-10T11:34:11;0.60;;;0.60;;
20177;SDS011;10248;51.218;20.866;2023-05-10T11:36:40;0.50;;;0.50;;
20177;SDS011;10248;51.218;20.866;2023-05-10T11:39:09;0.55;;;0.55;;
20177;SDS011;10248;51.218;20.866;2023-05-10T11:41:37;0.50;;;0.50;;
20177;SDS011;10248;51.218;20.866;2023-05-10T11:44:08;0.60;;;0.60;;
20177;SDS011;10248;51.218;20.866;2023-05-10T11:46:36;0.60;;;0.60;;
20177;SDS011;10248;51.218;20.866;2023-05-10T11:49:06;0.50;;;0.50;;
20177;SDS011;10248;51.218;20.866;2023-05-10T11:51:34;0.50;;;0.50;;
20177;SDS011;10248;51.218;20.866;2023-05-10T11:54:05;0.50;;;0.50;;
20177;SDS011;10248;51.218;20.866;2023-05-10T11:56:34;0.50;;;0.50;;
20177;SDS011;10248;51.218;20.866;2023-05-10T11:59:02;0.50;;;0.50;;
20177;SDS011;10248;51.218;20.866;2023-05-10T12:01:30;0.60;;;0.60;;
20177;SDS011;10248;51.218;20.866;2023-05-10T12:03:58;0.60;;;0.60;;
20177;SDS011;10248;51.218;20.866;2023-05-10T12:06:28;0.60;;;0.60;;
20177;SDS011;10248;51.218;20.866;2023-05-10T12:08:57;0.60;;;0.60;;
20177;SDS011;10248;51.218;20.866;2023-05-10T12:11:25;0.60;;;0.60;;
20177;SDS011;10248;51.218;20.866;2023-05-10T12:13:55;0.50;;;0.50;;
20177;SDS011;10248;51.218;20.866;2023-05-10T12:16:23;0.50;;;0.50;;
20177;SDS011;10248;51.218;20.866;2023-05-10T12:18:51;0.50;;;0.50;;
20177;SDS011;10248;51.218;20.866;2023-05-10T12:21:20;0.10;;;0.10;;
20177;SDS011;10248;51.218;20.866;2023-05-10T12:23:48;0.10;;;0.10;;
20177;SDS011;10248;51.218;20.866;2023-05-10T12:26:15;0.10;;;0.10;;
20177;SDS011;10248;51.218;20.866;2023-05-10T12:28:43;0.00;;;0.00;;
20177;SDS011;10248;51.218;20.866;2023-05-10T12:31:13;0.03;;;0.03;;
20177;SDS011;10248;51.218;20.866;2023-05-10T12:33:42;0.10;;;0.10;;
20177;SDS011;10248;51.218;20.866;2023-05-10T12:36:09;0.00;;;0.00;;
20177;SDS011;10248;51.218;20.866;2023-05-10T12:38:38;0.10;;;0.10;;
20177;SDS011;10248;51.218;20.866;2023-05-10T12:41:07;0.10;;;0.10;;
20177;SDS011;10248;51.218;20.866;2023-05-10T12:43:35;0.10;;;0.10;;
20177;SDS011;10248;51.218;20.866;2023-05-10T12:46:06;0.10;;;0.10;;
20177;SDS011;10248;51.218;20.866;2023-05-10T12:48:35;0.10;;;0.10;;
20177;SDS011;10248;51.218;20.866;2023-05-10T12:51:03;0.10;;;0.10;;
20177;SDS011;10248;51.218;20.866;2023-05-10T12:53:31;0.10;;;0.10;;
20177;SDS011;10248;51.218;20.866;2023-05-10T12:55:59;0.10;;;0.10;;
20177;SDS011;10248;51.218;20.866;2023-05-10T12:58:26;0.10;;;0.10;;
20177;SDS011;10248;51.218;20.866;2023-05-10T13:01:01;0.10;;;0.10;;
20177;SDS011;10248;51.218;20.866;2023-05-10T13:03:29;0.10;;;0.10;;
20177;SDS011;10248;51.218;20.866;2023-05-10T13:05:58;0.10;;;0.10;;
20177;SDS011;10248;51.218;20.866;2023-05-10T13:08:26;0.10;;;0.10;;
20177;SDS011;10248;51.218;20.866;2023-05-10T13:10:58;0.10;;;0.10;;
20177;SDS011;10248;51.218;20.866;2023-05-10T13:13:26;0.10;;;0.10;;
20177;SDS011;10248;51.218;20.866;2023-05-10T13:15:54;0.10;;;0.10;;
20177;SDS011;10248;51.218;20.866;2023-05-10T13:18:21;0.10;;;0.10;;
20177;SDS011;10248;51.218;20.866;2023-05-10T13:20:50;0.10;;;0.10;;
20177;SDS011;10248;51.218;20.866;2023-05-10T13:23:19;0.10;;;0.10;;
20177;SDS011;10248;51.218;20.866;2023-05-10T13:25:48;0.10;;;0.10;;
20177;SDS011;10248;51.218;20.866;2023-05-10T13:28:16;0.10;;;0.10;;
20177;SDS011;10248;51.218;20.866;2023-05-10T13:30:43;0.20;;;0.20;;
20177;SDS011;10248;51.218;20.866;2023-05-10T13:33:11;0.17;;;0.17;;
20177;SDS011;10248;51.218;20.866;2023-05-10T13:35:39;0.10;;;0.10;;
20177;SDS011;10248;51.218;20.866;2023-05-10T13:38:06;0.10;;;0.10;;
20177;SDS011;10248;51.218;20.866;2023-05-10T13:40:35;0.13;;;0.13;;
20177;SDS011;10248;51.218;20.866;2023-05-10T13:43:03;0.20;;;0.20;;
20177;SDS011;10248;51.218;20.866;2023-05-10T13:45:31;0.20;;;0.20;;
20177;SDS011;10248;51.218;20.866;2023-05-10T13:47:59;0.10;;;0.10;;
20177;SDS011;10248;51.218;20.866;2023-05-10T13:50:28;0.10;;;0.10;;
20177;SDS011;10248;51.218;20.866;2023-05-10T13:52:56;0.10;;;0.10;;
20177;SDS011;10248;51.218;20.866;2023-05-10T13:55:24;0.10;;;0.10;;
20177;SDS011;10248;51.218;20.866;2023-05-10T13:57:55;0.10;;;0.10;;
20177;SDS011;10248;51.218;20.866;2023-05-10T14:00:24;0.10;;;0.10;;
20177;SDS011;10248;51.218;20.866;2023-05-10T14:02:52;0.10;;;0.10;;
20177;SDS011;10248;51.218;20.866;2023-05-10T14:05:20;0.20;;;0.20;;
20177;SDS011;10248;51.218;20.866;2023-05-10T14:07:51;0.20;;;0.20;;
20177;SDS011;10248;51.218;20.866;2023-05-10T14:10:20;0.10;;;0.10;;
20177;SDS011;10248;51.218;20.866;2023-05-10T14:12:48;0.10;;;0.10;;
20177;SDS011;10248;51.218;20.866;2023-05-10T14:15:20;0.10;;;0.10;;
20177;SDS011;10248;51.218;20.866;2023-05-10T14:17:47;0.10;;;0.10;;
20177;SDS011;10248;51.218;20.866;2023-05-10T14:20:15;0.10;;;0.10;;
20177;SDS011;10248;51.218;20.866;2023-05-10T14:22:43;0.20;;;0.20;;
20177;SDS011;10248;51.218;20.866;2023-05-10T14:25:10;0.10;;;0.10;;
20177;SDS011;10248;51.218;20.866;2023-05-10T14:27:38;0.10;;;0.10;;
20177;SDS011;10248;51.218;20.866;2023-05-10T14:30:06;0.10;;;0.10;;
20177;SDS011;10248;51.218;20.866;2023-05-10T14:32:35;0.10;;;0.10;;
20177;SDS011;10248;51.218;20.866;2023-05-10T14:35:04;0.10;;;0.10;;
20177;SDS011;10248;51.218;20.866;2023-05-10T14:37:32;0.10;;;0.10;;
20177;SDS011;10248;51.218;20.866;2023-05-10T14:40:00;0.13;;;0.13;;
20177;SDS011;10248;51.218;20.866;2023-05-10T14:42:28;0.10;;;0.10;;
20177;SDS011;10248;51.218;20.866;2023-05-10T14:44:56;0.10;;;0.10;;
20177;SDS011;10248;51.218;20.866;2023-05-10T14:47:23;0.10;;;0.10;;